createdAt,value
2018-09-08T00:00:55.000Z,100573
2018-09-08T00:02:55.000Z,100573
2018-09-08T00:03:55.000Z,100575
2018-09-08T00:05:55.000Z,100575
2018-09-08T00:07:55.000Z,100570
2018-09-08T00:08:55.000Z,100571
2018-09-08T00:10:55.000Z,100560
2018-09-08T00:11:55.000Z,100558
2018-09-08T00:13:55.000Z,100551
2018-09-08T00:14:55.000Z,100559
2018-09-08T00:16:55.000Z,100566
2018-09-08T00:18:39.000Z,100564
2018-09-08T00:19:55.000Z,100559
2018-09-08T00:21:55.000Z,100559
2018-09-08T00:23:55.000Z,100559
2018-09-08T00:25:55.000Z,100565
2018-09-08T00:26:55.000Z,100567
2018-09-08T00:28:55.000Z,100568
2018-09-08T00:29:55.000Z,100567
2018-09-08T00:30:55.000Z,100570
2018-09-08T00:32:55.000Z,100569
2018-09-08T00:33:55.000Z,100570
2018-09-08T00:35:39.000Z,100575
2018-09-08T00:36:55.000Z,100564
2018-09-08T00:38:39.000Z,100566
2018-09-08T00:39:55.000Z,100561
2018-09-08T00:41:55.000Z,100563
2018-09-08T00:42:55.000Z,100565
2018-09-08T00:44:55.000Z,100571
2018-09-08T00:46:55.000Z,100567
2018-09-08T00:48:55.000Z,100567
2018-09-08T00:49:55.000Z,100564
2018-09-08T00:51:55.000Z,100567
2018-09-08T00:52:55.000Z,100561
2018-09-08T00:54:55.000Z,100560
2018-09-08T00:56:39.000Z,100563
2018-09-08T00:57:55.000Z,100568
2018-09-08T00:59:39.000Z,100567
2018-09-08T01:00:55.000Z,100572
2018-09-08T01:02:39.000Z,100572
2018-09-08T01:03:55.000Z,100577
2018-09-08T01:05:55.000Z,100579
2018-09-08T01:06:55.000Z,100579
2018-09-08T01:08:55.000Z,100575
2018-09-08T01:10:55.000Z,100577
2018-09-08T01:12:55.000Z,100586
2018-09-08T01:13:55.000Z,100588
2018-09-08T01:15:55.000Z,100589
2018-09-08T01:17:55.000Z,100593
2018-09-08T01:19:55.000Z,100586
2018-09-08T01:21:55.000Z,100593
2018-09-08T01:22:55.000Z,100593
2018-09-08T01:24:55.000Z,100592
2018-09-08T01:25:55.000Z,100590
2018-09-08T01:26:55.000Z,100594
2018-09-08T01:28:55.000Z,100596
2018-09-08T01:30:55.000Z,100594
2018-09-08T01:31:55.000Z,100593
2018-09-08T01:33:55.000Z,100591
2018-09-08T01:35:55.000Z,100597
2018-09-08T01:37:55.000Z,100603
2018-09-08T01:39:55.000Z,100599
2018-09-08T01:41:55.000Z,100596
2018-09-08T01:42:55.000Z,100598
2018-09-08T01:43:55.000Z,100597
2018-09-08T01:45:55.000Z,100607
2018-09-08T01:46:55.000Z,100607
2018-09-08T01:48:55.000Z,100611
2018-09-08T01:50:55.000Z,100614
2018-09-08T01:52:55.000Z,100608
2018-09-08T01:54:55.000Z,100608
2018-09-08T01:55:55.000Z,100604
2018-09-08T01:57:25.000Z,100596
2018-09-08T01:58:55.000Z,100604
2018-09-08T02:00:55.000Z,100606
2018-09-08T02:01:55.000Z,100600
2018-09-08T02:02:55.000Z,100599
2018-09-08T02:04:55.000Z,100604
2018-09-08T02:05:55.000Z,100597
2018-09-08T02:07:55.000Z,100600
2018-09-08T02:09:55.000Z,100593
2018-09-08T02:11:55.000Z,100590
2018-09-08T02:13:55.000Z,100595
2018-09-08T02:15:55.000Z,100593
2018-09-08T02:17:55.000Z,100594
2018-09-08T02:19:55.000Z,100594
2018-09-08T02:20:55.000Z,100599
2018-09-08T02:22:55.000Z,100590
2018-09-08T02:23:55.000Z,100595
2018-09-08T02:24:55.000Z,100595
2018-09-08T02:26:55.000Z,100598
2018-09-08T02:28:55.000Z,100604
2018-09-08T02:29:55.000Z,100603
2018-09-08T02:31:55.000Z,100598
2018-09-08T02:32:55.000Z,100598
2018-09-08T02:34:55.000Z,100601
2018-09-08T02:35:55.000Z,100602
2018-09-08T02:37:55.000Z,100598
2018-09-08T02:38:55.000Z,100601
2018-09-08T02:40:55.000Z,100604
2018-09-08T02:41:55.000Z,100602
2018-09-08T02:43:55.000Z,100605
2018-09-08T02:45:55.000Z,100602
2018-09-08T02:47:55.000Z,100604
2018-09-08T02:49:55.000Z,100602
2018-09-08T02:51:55.000Z,100600
2018-09-08T02:52:55.000Z,100608
2018-09-08T02:54:55.000Z,100602
2018-09-08T02:55:55.000Z,100600
2018-09-08T02:57:55.000Z,100604
2018-09-08T02:59:55.000Z,100605
2018-09-08T03:00:55.000Z,100603
2018-09-08T03:02:55.000Z,100604
2018-09-08T03:04:55.000Z,100607
2018-09-08T03:06:55.000Z,100603
2018-09-08T03:08:55.000Z,100612
2018-09-08T03:10:55.000Z,100613
2018-09-08T03:11:55.000Z,100614
2018-09-08T03:13:55.000Z,100619
2018-09-08T03:14:55.000Z,100619
2018-09-08T03:16:55.000Z,100620
2018-09-08T03:17:55.000Z,100621
2018-09-08T03:19:55.000Z,100624
2018-09-08T03:21:55.000Z,100623
2018-09-08T03:23:39.000Z,100624
2018-09-08T03:24:55.000Z,100626
2018-09-08T03:26:39.000Z,100621
2018-09-08T03:27:55.000Z,100622
2018-09-08T03:29:39.000Z,100626
2018-09-08T03:30:55.000Z,100624
2018-09-08T03:31:55.000Z,100628
2018-09-08T03:32:55.000Z,100628
2018-09-08T03:34:55.000Z,100628
2018-09-08T03:36:55.000Z,100623
2018-09-08T03:37:55.000Z,100622
2018-09-08T03:38:55.000Z,100625
2018-09-08T03:40:55.000Z,100628
2018-09-08T03:42:55.000Z,100633
2018-09-08T03:44:39.000Z,100635
2018-09-08T03:45:55.000Z,100633
2018-09-08T03:47:39.000Z,100630
2018-09-08T03:48:55.000Z,100631
2018-09-08T03:50:39.000Z,100626
2018-09-08T03:51:39.000Z,100636
2018-09-08T03:52:55.000Z,100628
2018-09-08T03:54:40.000Z,100635
2018-09-08T03:55:55.000Z,100639
2018-09-08T03:56:55.000Z,100637
2018-09-08T03:58:55.000Z,100638
2018-09-08T03:59:55.000Z,100629
2018-09-08T04:01:55.000Z,100638
2018-09-08T04:03:55.000Z,100641
2018-09-08T04:04:55.000Z,100638
2018-09-08T04:06:55.000Z,100646
2018-09-08T04:08:55.000Z,100645
2018-09-08T04:10:55.000Z,100639
2018-09-08T04:11:55.000Z,100642
2018-09-08T04:13:40.000Z,100640
2018-09-08T04:14:55.000Z,100634
2018-09-08T04:15:55.000Z,100638
2018-09-08T04:17:55.000Z,100639
2018-09-08T04:19:55.000Z,100638
2018-09-08T04:21:55.000Z,100642
2018-09-08T04:22:55.000Z,100642
2018-09-08T04:24:55.000Z,100648
2018-09-08T04:25:55.000Z,100647
2018-09-08T04:27:55.000Z,100641
2018-09-08T04:29:55.000Z,100643
2018-09-08T04:31:55.000Z,100656
2018-09-08T04:33:55.000Z,100657
2018-09-08T04:34:55.000Z,100653
2018-09-08T04:36:40.000Z,100648
2018-09-08T04:37:40.000Z,100648
2018-09-08T04:38:55.000Z,100644
2018-09-08T04:39:55.000Z,100652
2018-09-08T04:41:55.000Z,100647
2018-09-08T04:43:40.000Z,100647
2018-09-08T04:44:55.000Z,100646
2018-09-08T04:46:55.000Z,100644
2018-09-08T04:47:55.000Z,100649
2018-09-08T04:49:40.000Z,100644
2018-09-08T04:50:55.000Z,100646
2018-09-08T04:51:55.000Z,100647
2018-09-08T04:53:40.000Z,100647
2018-09-08T04:54:55.000Z,100649
2018-09-08T04:56:40.000Z,100647
2018-09-08T04:57:55.000Z,100646
2018-09-08T04:59:40.000Z,100661
2018-09-08T05:00:55.000Z,100656
2018-09-08T05:01:55.000Z,100659
2018-09-08T05:03:55.000Z,100660
2018-09-08T05:05:55.000Z,100663
2018-09-08T05:07:40.000Z,100659
2018-09-08T05:08:55.000Z,100668
2018-09-08T05:10:55.000Z,100669
2018-09-08T05:12:40.000Z,100671
2018-09-08T05:13:55.000Z,100667
2018-09-08T05:15:55.000Z,100672
2018-09-08T05:17:55.000Z,100668
2018-09-08T05:19:55.000Z,100677
2018-09-08T05:21:55.000Z,100675
2018-09-08T05:23:55.000Z,100678
2018-09-08T05:25:55.000Z,100672
2018-09-08T05:27:55.000Z,100675
2018-09-08T05:29:55.000Z,100682
2018-09-08T05:31:40.000Z,100678
2018-09-08T05:32:55.000Z,100686
2018-09-08T05:33:55.000Z,100681
2018-09-08T05:35:55.000Z,100677
2018-09-08T05:37:25.000Z,100676
2018-09-08T05:38:55.000Z,100674
2018-09-08T05:40:55.000Z,100683
2018-09-08T05:42:55.000Z,100677
2018-09-08T05:44:55.000Z,100685
2018-09-08T05:46:55.000Z,100689
2018-09-08T05:48:55.000Z,100696
2018-09-08T05:50:55.000Z,100695
2018-09-08T05:52:55.000Z,100704
2018-09-08T05:54:55.000Z,100706
2018-09-08T05:56:55.000Z,100700
2018-09-08T05:58:55.000Z,100704
2018-09-08T06:00:55.000Z,100702
2018-09-08T06:02:55.000Z,100708
2018-09-08T06:03:55.000Z,100709
2018-09-08T06:05:40.000Z,100710
2018-09-08T06:06:55.000Z,100710
2018-09-08T06:07:55.000Z,100711
2018-09-08T06:09:55.000Z,100708
2018-09-08T06:10:55.000Z,100708
2018-09-08T06:12:55.000Z,100707
2018-09-08T06:14:55.000Z,100713
2018-09-08T06:16:55.000Z,100706
2018-09-08T06:17:55.000Z,100710
2018-09-08T06:19:55.000Z,100702
2018-09-08T06:21:55.000Z,100712
2018-09-08T06:23:55.000Z,100705
2018-09-08T06:25:55.000Z,100701
2018-09-08T06:27:39.000Z,100700
2018-09-08T06:28:55.000Z,100700
2018-09-08T06:30:39.000Z,100701
2018-09-08T06:31:55.000Z,100694
2018-09-08T06:33:55.000Z,100697
2018-09-08T06:35:39.000Z,100699
2018-09-08T06:36:55.000Z,100705
2018-09-08T06:37:55.000Z,100705
2018-09-08T06:38:55.000Z,100703
2018-09-08T06:40:55.000Z,100705
2018-09-08T06:41:55.000Z,100711
2018-09-08T06:42:55.000Z,100711
2018-09-08T06:44:39.000Z,100713
2018-09-08T06:45:55.000Z,100715
2018-09-08T06:47:55.000Z,100711
2018-09-08T06:49:55.000Z,100724
2018-09-08T06:50:55.000Z,100718
2018-09-08T06:52:55.000Z,100727
2018-09-08T06:54:55.000Z,100730
2018-09-08T06:56:55.000Z,100725
2018-09-08T06:58:55.000Z,100732
2018-09-08T07:00:55.000Z,100729
2018-09-08T07:02:55.000Z,100724
2018-09-08T07:04:39.000Z,100725
2018-09-08T07:05:55.000Z,100724
2018-09-08T07:07:55.000Z,100728
2018-09-08T07:09:55.000Z,100726
2018-09-08T07:11:55.000Z,100724
2018-09-08T07:13:55.000Z,100718
2018-09-08T07:15:55.000Z,100711
2018-09-08T07:17:55.000Z,100714
2018-09-08T07:19:55.000Z,100713
2018-09-08T07:20:55.000Z,100715
2018-09-08T07:22:55.000Z,100715
2018-09-08T07:23:55.000Z,100714
2018-09-08T07:25:55.000Z,100720
2018-09-08T07:27:55.000Z,100720
2018-09-08T07:29:55.000Z,100731
2018-09-08T07:31:55.000Z,100729
2018-09-08T07:33:40.000Z,100728
2018-09-08T07:34:40.000Z,100728
2018-09-08T07:35:55.000Z,100731
2018-09-08T07:37:55.000Z,100730
2018-09-08T07:39:55.000Z,100725
2018-09-08T07:41:55.000Z,100730
2018-09-08T07:43:55.000Z,100731
2018-09-08T07:44:55.000Z,100732
2018-09-08T07:45:55.000Z,100729
2018-09-08T07:47:55.000Z,100736
2018-09-08T07:49:55.000Z,100733
2018-09-08T07:51:55.000Z,100733
2018-09-08T07:52:55.000Z,100737
2018-09-08T07:54:40.000Z,100733
2018-09-08T07:55:55.000Z,100743
2018-09-08T07:57:55.000Z,100734
2018-09-08T07:59:40.000Z,100735
2018-09-08T08:00:55.000Z,100742
2018-09-08T08:02:40.000Z,100735
2018-09-08T08:03:55.000Z,100734
2018-09-08T08:05:55.000Z,100744
2018-09-08T08:06:55.000Z,100738
2018-09-08T08:08:55.000Z,100736
2018-09-08T08:09:55.000Z,100746
2018-09-08T08:11:55.000Z,100741
2018-09-08T08:13:40.000Z,100748
2018-09-08T08:14:55.000Z,100750
2018-09-08T08:16:55.000Z,100749
2018-09-08T08:18:55.000Z,100748
2018-09-08T08:20:55.000Z,100748
2018-09-08T08:22:55.000Z,100754
2018-09-08T08:24:55.000Z,100752
2018-09-08T08:25:55.000Z,100751
2018-09-08T08:27:55.000Z,100756
2018-09-08T08:28:55.000Z,100753
2018-09-08T08:30:39.000Z,100760
2018-09-08T08:31:55.000Z,100757
2018-09-08T08:33:55.000Z,100767
2018-09-08T08:35:55.000Z,100757
2018-09-08T08:36:55.000Z,100760
2018-09-08T08:37:55.000Z,100761
2018-09-08T08:38:55.000Z,100761
2018-09-08T08:40:55.000Z,100769
2018-09-08T08:41:55.000Z,100767
2018-09-08T08:43:55.000Z,100769
2018-09-08T08:44:55.000Z,100770
2018-09-08T08:46:55.000Z,100766
2018-09-08T08:47:55.000Z,100771
2018-09-08T08:49:55.000Z,100766
2018-09-08T08:51:55.000Z,100769
2018-09-08T08:53:55.000Z,100768
2018-09-08T08:54:55.000Z,100773
2018-09-08T08:56:55.000Z,100769
2018-09-08T08:58:55.000Z,100770
2018-09-08T08:59:55.000Z,100770
2018-09-08T09:01:55.000Z,100768
2018-09-08T09:03:55.000Z,100773
2018-09-08T09:04:55.000Z,100773
2018-09-08T09:06:55.000Z,100765
2018-09-08T09:08:39.000Z,100779
2018-09-08T09:09:55.000Z,100776
2018-09-08T09:10:55.000Z,100781
2018-09-08T09:12:55.000Z,100785
2018-09-08T09:14:55.000Z,100775
2018-09-08T09:16:55.000Z,100786
2018-09-08T09:18:39.000Z,100776
2018-09-08T09:19:55.000Z,100775
2018-09-08T09:21:55.000Z,100774
2018-09-08T09:23:55.000Z,100773
2018-09-08T09:25:55.000Z,100777
2018-09-08T09:27:55.000Z,100781
2018-09-08T09:29:55.000Z,100780
2018-09-08T09:30:55.000Z,100774
2018-09-08T09:32:55.000Z,100770
2018-09-08T09:33:55.000Z,100775
2018-09-08T09:34:55.000Z,100780
2018-09-08T09:35:55.000Z,100777
2018-09-08T09:37:40.000Z,100780
2018-09-08T09:38:55.000Z,100776
2018-09-08T09:39:55.000Z,100776
2018-09-08T09:40:55.000Z,100777
2018-09-08T09:42:55.000Z,100777
2018-09-08T09:43:55.000Z,100771
2018-09-08T09:45:55.000Z,100771
2018-09-08T09:47:55.000Z,100765
2018-09-08T09:49:55.000Z,100758
2018-09-08T09:50:55.000Z,100764
2018-09-08T09:51:55.000Z,100764
2018-09-08T09:53:55.000Z,100765
2018-09-08T09:55:55.000Z,100773
2018-09-08T09:57:55.000Z,100774
2018-09-08T09:58:55.000Z,100765
2018-09-08T09:59:55.000Z,100765
2018-09-08T10:01:55.000Z,100771
2018-09-08T10:02:55.000Z,100778
2018-09-08T10:04:55.000Z,100766
2018-09-08T10:05:55.000Z,100767
2018-09-08T10:07:55.000Z,100773
2018-09-08T10:09:55.000Z,100769
2018-09-08T10:11:40.000Z,100773
2018-09-08T10:12:55.000Z,100771
2018-09-08T10:13:55.000Z,100772
2018-09-08T10:15:55.000Z,100778
2018-09-08T10:16:55.000Z,100785
2018-09-08T10:17:55.000Z,100778
2018-09-08T10:19:55.000Z,100787
2018-09-08T10:20:55.000Z,100778
2018-09-08T10:22:40.000Z,100791
2018-09-08T10:23:55.000Z,100790
2018-09-08T10:24:55.000Z,100786
2018-09-08T10:26:40.000Z,100790
2018-09-08T10:27:55.000Z,100782
2018-09-08T10:29:55.000Z,100791
2018-09-08T10:31:40.000Z,100787
2018-09-08T10:32:55.000Z,100790
2018-09-08T10:33:55.000Z,100784
2018-09-08T10:34:55.000Z,100777
2018-09-08T10:36:55.000Z,100789
2018-09-08T10:38:55.000Z,100783
2018-09-08T10:40:55.000Z,100785
2018-09-08T10:42:55.000Z,100778
2018-09-08T10:44:55.000Z,100774
2018-09-08T10:46:55.000Z,100775
2018-09-08T10:48:55.000Z,100778
2018-09-08T10:49:55.000Z,100784
2018-09-08T10:51:40.000Z,100778
2018-09-08T10:52:55.000Z,100776
2018-09-08T10:53:55.000Z,100780
2018-09-08T10:55:55.000Z,100784
2018-09-08T10:56:55.000Z,100782
2018-09-08T10:58:55.000Z,100778
2018-09-08T11:00:40.000Z,100779
2018-09-08T11:01:55.000Z,100776
2018-09-08T11:03:40.000Z,100778
2018-09-08T11:04:55.000Z,100768
2018-09-08T11:06:55.000Z,100772
2018-09-08T11:08:40.000Z,100773
2018-09-08T11:10:55.000Z,100771
2018-09-08T11:12:55.000Z,100776
2018-09-08T11:14:40.000Z,100773
2018-09-08T11:15:55.000Z,100778
2018-09-08T11:17:55.000Z,100772
2018-09-08T11:19:25.000Z,100776
2018-09-08T11:20:55.000Z,100768
2018-09-08T11:22:55.000Z,100765
2018-09-08T11:24:55.000Z,100767
2018-09-08T11:26:55.000Z,100767
2018-09-08T11:28:55.000Z,100766
2018-09-08T11:29:55.000Z,100756
2018-09-08T11:30:55.000Z,100762
2018-09-08T11:32:55.000Z,100770
2018-09-08T11:34:40.000Z,100762
2018-09-08T11:35:55.000Z,100756
2018-09-08T11:37:55.000Z,100759
2018-09-08T11:39:55.000Z,100759
2018-09-08T11:41:40.000Z,100753
2018-09-08T11:42:55.000Z,100752
2018-09-08T11:44:55.000Z,100756
2018-09-08T11:46:40.000Z,100755
2018-09-08T11:47:55.000Z,100746
2018-09-08T11:49:55.000Z,100757
2018-09-08T11:51:55.000Z,100745
2018-09-08T11:52:55.000Z,100751
2018-09-08T11:53:55.000Z,100746
2018-09-08T11:55:55.000Z,100747
2018-09-08T11:57:55.000Z,100748
2018-09-08T11:59:55.000Z,100739
2018-09-08T12:01:55.000Z,100740
2018-09-08T12:02:55.000Z,100745
2018-09-08T12:04:55.000Z,100750
2018-09-08T12:06:55.000Z,100751
2018-09-08T12:08:55.000Z,100758
2018-09-08T12:10:55.000Z,100747
2018-09-08T12:12:40.000Z,100752
2018-09-08T12:14:55.000Z,100756
2018-09-08T12:16:55.000Z,100750
2018-09-08T12:18:55.000Z,100742
2018-09-08T12:20:55.000Z,100745
2018-09-08T12:22:55.000Z,100731
2018-09-08T12:24:40.000Z,100740
2018-09-08T12:25:55.000Z,100737
2018-09-08T12:27:55.000Z,100744
2018-09-08T12:28:55.000Z,100744
2018-09-08T12:30:55.000Z,100748
2018-09-08T12:32:55.000Z,100742
2018-09-08T12:34:55.000Z,100740
2018-09-08T12:36:55.000Z,100734
2018-09-08T12:37:55.000Z,100726
2018-09-08T12:39:40.000Z,100746
2018-09-08T12:40:55.000Z,100734
2018-09-08T12:42:25.000Z,100736
2018-09-08T12:43:55.000Z,100738
2018-09-08T12:44:55.000Z,100738
2018-09-08T12:46:55.000Z,100738
2018-09-08T12:48:55.000Z,100734
2018-09-08T12:50:55.000Z,100730
2018-09-08T12:52:25.000Z,100727
2018-09-08T12:53:55.000Z,100720
2018-09-08T12:55:55.000Z,100718
2018-09-08T12:56:55.000Z,100721
2018-09-08T12:57:55.000Z,100720
2018-09-08T12:59:55.000Z,100728
2018-09-08T13:01:55.000Z,100723
2018-09-08T13:03:55.000Z,100723
2018-09-08T13:05:40.000Z,100723
2018-09-08T13:06:55.000Z,100719
2018-09-08T13:08:55.000Z,100721
2018-09-08T13:10:55.000Z,100709
2018-09-08T13:11:55.000Z,100718
2018-09-08T13:13:55.000Z,100719
2018-09-08T13:14:55.000Z,100720
2018-09-08T13:16:40.000Z,100713
2018-09-08T13:17:55.000Z,100705
2018-09-08T13:19:55.000Z,100702
2018-09-08T13:20:55.000Z,100700
2018-09-08T13:22:40.000Z,100701
2018-09-08T13:23:55.000Z,100700
2018-09-08T13:25:55.000Z,100693
2018-09-08T13:27:55.000Z,100698
2018-09-08T13:28:55.000Z,100695
2018-09-08T13:30:55.000Z,100686
2018-09-08T13:31:55.000Z,100704
2018-09-08T13:33:55.000Z,100705
2018-09-08T13:35:55.000Z,100706
2018-09-08T13:37:55.000Z,100697
2018-09-08T13:38:55.000Z,100694
2018-09-08T13:40:55.000Z,100700
2018-09-08T13:41:55.000Z,100699
2018-09-08T13:42:55.000Z,100702
2018-09-08T13:44:55.000Z,100705
2018-09-08T13:46:55.000Z,100713
2018-09-08T13:48:55.000Z,100710
2018-09-08T13:49:55.000Z,100702
2018-09-08T13:51:55.000Z,100704
2018-09-08T13:52:55.000Z,100704
2018-09-08T13:53:55.000Z,100702
2018-09-08T13:55:55.000Z,100700
2018-09-08T13:57:55.000Z,100705
2018-09-08T13:58:55.000Z,100707
2018-09-08T14:00:55.000Z,100699
2018-09-08T14:02:55.000Z,100703
2018-09-08T14:04:55.000Z,100705
2018-09-08T14:05:55.000Z,100697
2018-09-08T14:07:40.000Z,100698
2018-09-08T14:08:55.000Z,100699
2018-09-08T14:09:55.000Z,100707
2018-09-08T14:11:40.000Z,100708
2018-09-08T14:12:55.000Z,100706
2018-09-08T14:13:55.000Z,100704
2018-09-08T14:14:55.000Z,100703
2018-09-08T14:15:55.000Z,100702
2018-09-08T14:17:55.000Z,100696
2018-09-08T14:19:55.000Z,100706
2018-09-08T14:21:40.000Z,100699
2018-09-08T14:22:55.000Z,100705
2018-09-08T14:23:55.000Z,100704
2018-09-08T14:24:55.000Z,100705
2018-09-08T14:26:55.000Z,100708
2018-09-08T14:28:55.000Z,100713
2018-09-08T14:29:55.000Z,100717
2018-09-08T14:30:55.000Z,100711
2018-09-08T14:32:55.000Z,100713
2018-09-08T14:34:55.000Z,100716
2018-09-08T14:36:55.000Z,100713
2018-09-08T14:38:55.000Z,100720
2018-09-08T14:40:55.000Z,100720
2018-09-08T14:41:55.000Z,100730
2018-09-08T14:43:55.000Z,100734
2018-09-08T14:45:55.000Z,100736
2018-09-08T14:47:55.000Z,100713
2018-09-08T14:49:55.000Z,100724
2018-09-08T14:50:55.000Z,100714
2018-09-08T14:51:55.000Z,100706
2018-09-08T14:53:55.000Z,100713
2018-09-08T14:55:55.000Z,100710
2018-09-08T14:57:55.000Z,100719
2018-09-08T14:59:55.000Z,100715
2018-09-08T15:01:55.000Z,100720
2018-09-08T15:03:55.000Z,100723
2018-09-08T15:05:55.000Z,100720
2018-09-08T15:07:55.000Z,100715
2018-09-08T15:09:55.000Z,100711
2018-09-08T15:11:40.000Z,100704
2018-09-08T15:12:55.000Z,100702
2018-09-08T15:14:55.000Z,100704
2018-09-08T15:16:55.000Z,100706
2018-09-08T15:18:40.000Z,100707
2018-09-08T15:19:55.000Z,100704
2018-09-08T15:21:55.000Z,100715
2018-09-08T15:23:55.000Z,100708
2018-09-08T15:24:55.000Z,100710
2018-09-08T15:26:55.000Z,100706
2018-09-08T15:28:55.000Z,100696
2018-09-08T15:29:55.000Z,100701
2018-09-08T15:31:55.000Z,100700
2018-09-08T15:32:55.000Z,100699
2018-09-08T15:34:55.000Z,100703
2018-09-08T15:36:55.000Z,100698
2018-09-08T15:37:55.000Z,100692
2018-09-08T15:38:55.000Z,100695
2018-09-08T15:40:55.000Z,100688
2018-09-08T15:42:55.000Z,100678
2018-09-08T15:44:55.000Z,100679
2018-09-08T15:46:55.000Z,100677
2018-09-08T15:48:55.000Z,100679
2018-09-08T15:50:55.000Z,100679
2018-09-08T15:51:55.000Z,100684
2018-09-08T15:53:55.000Z,100688
2018-09-08T15:55:55.000Z,100691
2018-09-08T15:56:55.000Z,100686
2018-09-08T15:58:39.000Z,100688
2018-09-08T15:59:39.000Z,100687
2018-09-08T16:00:55.000Z,100689
2018-09-08T16:01:55.000Z,100686
2018-09-08T16:03:55.000Z,100684
2018-09-08T16:05:55.000Z,100684
2018-09-08T16:07:55.000Z,100684
2018-09-08T16:09:55.000Z,100681
2018-09-08T16:10:55.000Z,100685
2018-09-08T16:11:55.000Z,100685
2018-09-08T16:13:40.000Z,100684
2018-09-08T16:14:55.000Z,100688
2018-09-08T16:16:55.000Z,100681
2018-09-08T16:18:55.000Z,100690
2018-09-08T16:20:55.000Z,100693
2018-09-08T16:22:55.000Z,100691
2018-09-08T16:24:55.000Z,100691
2018-09-08T16:26:55.000Z,100695
2018-09-08T16:27:55.000Z,100694
2018-09-08T16:29:55.000Z,100692
2018-09-08T16:31:40.000Z,100690
2018-09-08T16:32:55.000Z,100692
2018-09-08T16:34:55.000Z,100700
2018-09-08T16:36:55.000Z,100701
2018-09-08T16:38:40.000Z,100695
2018-09-08T16:39:55.000Z,100703
2018-09-08T16:40:55.000Z,100703
2018-09-08T16:41:55.000Z,100700
2018-09-08T16:43:55.000Z,100694
2018-09-08T16:44:55.000Z,100696
2018-09-08T16:46:55.000Z,100703
2018-09-08T16:48:55.000Z,100701
2018-09-08T16:50:55.000Z,100695
2018-09-08T16:52:55.000Z,100690
2018-09-08T16:53:55.000Z,100693
2018-09-08T16:55:55.000Z,100693
2018-09-08T16:56:55.000Z,100685
2018-09-08T16:57:55.000Z,100681
2018-09-08T16:58:55.000Z,100686
2018-09-08T17:00:40.000Z,100702
2018-09-08T17:01:55.000Z,100695
2018-09-08T17:03:55.000Z,100686
2018-09-08T17:05:55.000Z,100693
2018-09-08T17:07:55.000Z,100691
2018-09-08T17:08:55.000Z,100689
2018-09-08T17:10:55.000Z,100686
2018-09-08T17:11:55.000Z,100683
2018-09-08T17:13:55.000Z,100692
2018-09-08T17:14:55.000Z,100681
2018-09-08T17:15:55.000Z,100679
2018-09-08T17:17:55.000Z,100678
2018-09-08T17:19:55.000Z,100678
2018-09-08T17:21:55.000Z,100680
2018-09-08T17:23:55.000Z,100681
2018-09-08T17:24:55.000Z,100685
2018-09-08T17:26:55.000Z,100684
2018-09-08T17:27:55.000Z,100679
2018-09-08T17:29:40.000Z,100683
2018-09-08T17:30:55.000Z,100674
2018-09-08T17:32:55.000Z,100679
2018-09-08T17:34:55.000Z,100689
2018-09-08T17:36:55.000Z,100687
2018-09-08T17:38:55.000Z,100690
2018-09-08T17:40:55.000Z,100677
2018-09-08T17:42:40.000Z,100671
2018-09-08T17:43:55.000Z,100678
2018-09-08T17:44:55.000Z,100674
2018-09-08T17:46:40.000Z,100676
2018-09-08T17:47:55.000Z,100674
2018-09-08T17:49:55.000Z,100674
2018-09-08T17:51:55.000Z,100681
2018-09-08T17:53:55.000Z,100677
2018-09-08T17:55:55.000Z,100676
2018-09-08T17:56:55.000Z,100675
2018-09-08T17:58:40.000Z,100672
2018-09-08T17:59:55.000Z,100673
2018-09-08T18:01:55.000Z,100672
2018-09-08T18:03:55.000Z,100669
2018-09-08T18:05:55.000Z,100673
2018-09-08T18:07:55.000Z,100671
2018-09-08T18:09:39.000Z,100672
2018-09-08T18:10:55.000Z,100674
2018-09-08T18:11:55.000Z,100676
2018-09-08T18:13:55.000Z,100678
2018-09-08T18:15:55.000Z,100680
2018-09-08T18:16:55.000Z,100682
2018-09-08T18:18:55.000Z,100686
2018-09-08T18:19:55.000Z,100692
2018-09-08T18:20:55.000Z,100685
2018-09-08T18:22:55.000Z,100689
2018-09-08T18:23:55.000Z,100683
2018-09-08T18:24:55.000Z,100687
2018-09-08T18:26:55.000Z,100685
2018-09-08T18:28:55.000Z,100683
2018-09-08T18:30:55.000Z,100689
2018-09-08T18:32:55.000Z,100686
2018-09-08T18:34:55.000Z,100696
2018-09-08T18:35:55.000Z,100690
2018-09-08T18:37:55.000Z,100698
2018-09-08T18:39:55.000Z,100694
2018-09-08T18:40:55.000Z,100696
2018-09-08T18:42:54.000Z,100696
2018-09-08T18:43:55.000Z,100706
2018-09-08T18:44:55.000Z,100700
2018-09-08T18:46:55.000Z,100696
2018-09-08T18:48:39.000Z,100698
2018-09-08T18:49:55.000Z,100689
2018-09-08T18:50:55.000Z,100693
2018-09-08T18:51:55.000Z,100694
2018-09-08T18:53:55.000Z,100697
2018-09-08T18:55:55.000Z,100696
2018-09-08T18:57:55.000Z,100705
2018-09-08T18:59:55.000Z,100703
2018-09-08T19:00:55.000Z,100705
2018-09-08T19:02:55.000Z,100711
2018-09-08T19:03:55.000Z,100707
2018-09-08T19:04:55.000Z,100713
2018-09-08T19:06:55.000Z,100711
2018-09-08T19:08:55.000Z,100711
2018-09-08T19:09:55.000Z,100715
2018-09-08T19:11:55.000Z,100710
2018-09-08T19:13:40.000Z,100706
2018-09-08T19:14:55.000Z,100709
2018-09-08T19:16:55.000Z,100715
2018-09-08T19:18:40.000Z,100711
2018-09-08T19:19:55.000Z,100712
2018-09-08T19:21:55.000Z,100711
2018-09-08T19:23:55.000Z,100713
2018-09-08T19:25:55.000Z,100719
2018-09-08T19:27:55.000Z,100716
2018-09-08T19:28:55.000Z,100710
2018-09-08T19:30:55.000Z,100707
2018-09-08T19:32:55.000Z,100711
2018-09-08T19:33:55.000Z,100709
2018-09-08T19:35:40.000Z,100704
2018-09-08T19:36:55.000Z,100704
2018-09-08T19:38:55.000Z,100704
2018-09-08T19:40:55.000Z,100706
2018-09-08T19:41:55.000Z,100701
2018-09-08T19:43:55.000Z,100710
2018-09-08T19:44:55.000Z,100708
2018-09-08T19:46:40.000Z,100707
2018-09-08T19:47:40.000Z,100705
2018-09-08T19:48:55.000Z,100700
2018-09-08T19:50:55.000Z,100704
2018-09-08T19:51:55.000Z,100700
2018-09-08T19:52:55.000Z,100700
2018-09-08T19:54:55.000Z,100695
2018-09-08T19:56:55.000Z,100698
2018-09-08T19:57:55.000Z,100699
2018-09-08T19:59:55.000Z,100700
2018-09-08T20:01:55.000Z,100707
2018-09-08T20:03:55.000Z,100709
2018-09-08T20:05:55.000Z,100707
2018-09-08T20:07:55.000Z,100710
2018-09-08T20:08:55.000Z,100709
2018-09-08T20:10:55.000Z,100712
2018-09-08T20:11:55.000Z,100712
2018-09-08T20:13:55.000Z,100716
2018-09-08T20:15:55.000Z,100723
2018-09-08T20:17:55.000Z,100719
2018-09-08T20:19:55.000Z,100726
2018-09-08T20:21:55.000Z,100718